Nearby METAR Reports

This page may be slow to load as it queries the National Weather Service for data.

KBIS - Bismarck, North Dakota, USA
Distance from station: S 10mi, 15km
Updated: Fri, 10-Jul-2020 11:52pm CDT
Partly cloudy
Partly cloudy
 Wind from W
Wind: W 6 mph , 9 km/h
Temperature: 68°F , 20°C
Dew Point: 63°F , 17°C
Humidity: 83%
Barometer: 29.99 inHg , 1015.6 hPa
Clouds: Partly cloudy
Visibility: 10 miles , 16 km
Cloud details: Partly cloudy 11000 ft
2020/07/11 04:52 KBIS 110452Z AUTO 28005KT 10SM SCT110 20/17 A2999 RMK AO2 SLP149 T02000167
KDIK - Dickinson, North Dakota, USA
Distance from station: W 95mi, 154km
Updated: Fri, 10-Jul-2020 11:56pm CDT
Clear
Clear
 Wind from W
Wind: W 9 mph , 15 km/h
Temperature: 59°F , 15°C
Dew Point: 55°F , 13°C
Humidity: 88%
Barometer: 30.06 inHg , 1017.9 hPa
Clouds: Clear
Visibility: 10 miles , 16 km
2020/07/11 04:56 KDIK 110456Z AUTO 28008KT 10SM CLR 15/13 A3006 RMK AO2 SLP169 T01500128
 
KXWA - Williston, North Dakota, USA
Distance from station: NNW 2mi, 2km
Updated: Fri, 10-Jul-2020 11:51pm CDT
Clear
Clear
 Wind from W
Wind: W 12 mph , 19 km/h
Temperature: 59°F , 15°C
Dew Point: 54°F , 12°C
Humidity: 82%
Barometer: 30.04 inHg , 1017.3 hPa
Clouds: Clear
Visibility: 10 miles , 16 km
2020/07/11 04:51 KXWA 110451Z AUTO 27010KT 10SM CLR 15/12 A3004 RMK AO2 SLP012 T01500122
KFAR - Fargo, North Dakota, USA
Distance from station: NNW 4mi, 7km
Updated: Fri, 10-Jul-2020 11:53pm CDT
Clear
Clear
 Wind from calm
Wind: Calm
Temperature: 64°F , 18°C
Dew Point: 61°F , 16°C
Humidity: 88%
Barometer: 29.92 inHg , 1013.2 hPa
Clouds: Clear
Visibility: 10 miles , 16 km
2020/07/11 04:53 KFAR 110453Z 00000KT 10SM CLR 18/16 A2992 RMK AO2 SLP128 T01830156
 
KGFK - Grand Forks, North Dakota, USA
Distance from station: NNW 76mi, 123km
Updated: Fri, 10-Jul-2020 11:53pm CDT
Clear
Clear
 Wind from ENE
Wind: ENE 5 mph , 7 km/h
Temperature: 70°F , 21°C
Dew Point: 61°F , 16°C
Humidity: 73%
Barometer: 29.91 inHg , 1012.9 hPa
Clouds: Clear
Visibility: 10 miles , 16 km
2020/07/11 04:53 KGFK 110453Z 07004KT 10SM CLR 21/16 A2991 RMK AO2 SLP127 T02110161
KMOT - Minot, North Dakota, USA
Distance from station: E 109mi, 175km
Updated: Sat, 11-Jul-2020 12:23am CDT
Overcast
Overcast
 Wind from N
Wind: N 6 mph , 9 km/h
Temperature: 64°F , 18°C
Dew Point: 59°F , 15°C
Humidity: 83%
Barometer: 29.95 inHg , 1014.2 hPa
Clouds: Overcast
Visibility: 10 miles , 16 km
Cloud details: Few Clouds 3800 ft
Overcast 5000 ft
2020/07/11 05:23 KMOT 110523Z AUTO 35005KT 10SM FEW038 OVC050 18/15 A2995 RMK AO2 LTG DSNT N-E TSE0458 T01830150